Time;durP1;ratioP1;P1;durP2;ratioP2;P2;SDS_P1;SDS_P2;PMS_P1;PMS_P2;Temp;Humidity;BMP_temperature;BMP_pressure;BME280_temperature;BME280_humidity;BME280_pressure;Samples;Min_cycle;Max_cycle;Signal;HPM_P1;HPM_P2
2020/12/05 00:00:25;;;;;;;;;;;22.50;38.40;;;;;;1549316;75;1113;-66
2020/12/05 00:02:27;;;;;;;;;;;22.50;38.40;;;;;;1554346;75;788;-64
2020/12/05 00:04:29;;;;;;;;;;;22.50;38.40;;;;;;1549118;75;674;-66
2020/12/05 00:06:31;;;;;;;;;;;22.50;38.40;;;;;;1553478;75;734;-66
2020/12/05 00:08:33;;;;;;;;;;;22.50;38.40;;;;;;1550387;75;1962;-65
2020/12/05 00:10:35;;;;;;;;;;;22.40;38.40;;;;;;1550007;75;1118;-66
2020/12/05 00:12:36;;;;;;;;;;;22.50;38.50;;;;;;1545030;75;731;-67
2020/12/05 00:14:38;;;;;;;;;;;22.50;38.40;;;;;;1550327;75;598;-68
2020/12/05 00:16:40;;;;;;;;;;;22.50;38.50;;;;;;1547745;75;679;-68
2020/12/05 00:18:42;;;;;;;;;;;22.50;38.50;;;;;;1550895;75;683;-67
2020/12/05 00:20:45;;;;;;;;;;;22.40;38.40;;;;;;1547940;75;1197;-67
2020/12/05 00:22:46;;;;;;;;;;;22.50;38.50;;;;;;1546628;75;718;-68
2020/12/05 00:24:48;;;;;;;;;;;22.50;38.60;;;;;;1544150;75;688;-68
2020/12/05 00:26:50;;;;;;;;;;;22.50;38.60;;;;;;1548263;75;916;-66
2020/12/05 00:28:52;;;;;;;;;;;22.50;38.50;;;;;;1548205;75;1939;-66
2020/12/05 00:30:54;;;;;;;;;;;22.60;38.60;;;;;;1550596;75;1149;-66
2020/12/05 00:33:00;;;;;;;;;;;22.60;38.50;;;;;;1548529;75;689;-67
2020/12/05 00:35:02;;;;;;;;;;;22.60;38.50;;;;;;1552121;75;850;-67
2020/12/05 00:37:04;;;;;;;;;;;22.60;38.50;;;;;;1550111;75;797;-66
2020/12/05 00:39:06;;;;;;;;;;;22.60;38.50;;;;;;1552003;75;682;-66
2020/12/05 00:41:08;;;;;;;;;;;22.60;38.50;;;;;;1547710;75;1169;-66
2020/12/05 00:43:10;;;;;;;;;;;22.70;38.60;;;;;;1550287;75;959;-65
2020/12/05 00:45:12;;;;;;;;;;;22.70;38.60;;;;;;1550313;75;694;-67
2020/12/05 00:47:14;;;;;;;;;;;22.60;38.50;;;;;;1548750;75;663;-66
2020/12/05 00:49:15;;;;;;;;;;;22.60;38.60;;;;;;1534310;76;1939;-66
2020/12/05 00:51:17;;;;;;;;;;;22.60;38.60;;;;;;1549529;75;1136;-66
2020/12/05 00:53:19;;;;;;;;;;;22.60;38.50;;;;;;1549947;75;769;-66
2020/12/05 00:55:21;;;;;;;;;;;22.60;38.50;;;;;;1549557;75;641;-67
2020/12/05 00:57:23;;;;;;;;;;;22.70;38.60;;;;;;1543132;75;708;-65
2020/12/05 00:59:25;;;;;;;;;;;22.60;38.50;;;;;;1550057;75;756;-66
2020/12/05 01:01:27;;;;;;;;;;;22.70;38.60;;;;;;1550563;75;1103;-66
2020/12/05 01:03:28;;;;;;;;;;;22.60;38.60;;;;;;1550240;75;627;-66
2020/12/05 01:05:32;;;;;;;;;;;22.60;38.60;;;;;;1550234;75;663;-65
2020/12/05 01:07:34;;;;;;;;;;;22.60;38.60;;;;;;1549805;75;643;-65
2020/12/05 01:09:36;;;;;;;;;;;22.70;38.80;;;;;;1549564;75;1939;-65
2020/12/05 01:11:38;;;;;;;;;;;22.60;38.70;;;;;;1549645;75;1106;-66
2020/12/05 01:13:40;;;;;;;;;;;22.60;38.70;;;;;;1549822;75;806;-65
2020/12/05 01:15:42;;;;;;;;;;;22.60;38.70;;;;;;1550239;75;724;-66
2020/12/05 01:17:43;;;;;;;;;;;22.70;38.90;;;;;;1549674;75;759;-65
2020/12/05 01:19:45;;;;;;;;;;;22.70;38.80;;;;;;1550139;75;1201;-63
2020/12/05 01:21:47;;;;;;;;;;;22.70;38.80;;;;;;1548901;75;761;-63
2020/12/05 01:23:49;;;;;;;;;;;22.60;38.60;;;;;;1547412;75;794;-61
2020/12/05 01:25:51;;;;;;;;;;;22.70;38.70;;;;;;1550137;75;728;-63
2020/12/05 01:27:53;;;;;;;;;;;22.60;38.60;;;;;;1548712;75;717;-64
2020/12/05 01:29:55;;;;;;;;;;;22.70;38.70;;;;;;1549623;75;1947;-64
2020/12/05 01:31:57;;;;;;;;;;;22.70;38.70;;;;;;1549933;75;809;-64
2020/12/05 01:34:02;;;;;;;;;;;22.70;38.80;;;;;;1549744;75;784;-65
2020/12/05 01:36:02;;;;;;;;;;;22.70;38.80;;;;;;1549228;75;1401;-65
2020/12/05 01:38:04;;;;;;;;;;;22.70;38.70;;;;;;1555572;75;719;-64
2020/12/05 01:40:06;;;;;;;;;;;22.70;38.80;;;;;;1549922;75;1137;-66
2020/12/05 01:42:07;;;;;;;;;;;22.70;38.80;;;;;;1545627;75;688;-65
2020/12/05 01:44:09;;;;;;;;;;;22.70;38.70;;;;;;1544582;75;730;-66
2020/12/05 01:46:13;;;;;;;;;;;22.70;38.70;;;;;;1549766;75;971;-66
2020/12/05 01:48:18;;;;;;;;;;;22.60;38.70;;;;;;1547307;75;1853;-65
2020/12/05 01:50:20;;;;;;;;;;;22.70;38.90;;;;;;1549799;75;1917;-65
2020/12/05 01:52:22;;;;;;;;;;;22.60;38.80;;;;;;1549945;75;1064;-65
2020/12/05 01:54:23;;;;;;;;;;;22.60;38.80;;;;;;1549598;75;769;-66
2020/12/05 01:56:25;;;;;;;;;;;22.70;38.80;;;;;;1549626;75;810;-65
2020/12/05 01:58:27;;;;;;;;;;;22.70;38.80;;;;;;1545911;75;717;-65
2020/12/05 02:00:29;;;;;;;;;;;22.80;38.80;;;;;;1570314;74;1093;-67
2020/12/05 02:02:31;;;;;;;;;;;22.80;38.80;;;;;;1560733;74;804;-67
2020/12/05 02:04:36;;;;;;;;;;;22.80;38.70;;;;;;1569699;74;750;-66
2020/12/05 02:06:57;;;;;;;;;;;22.70;38.80;;;;;;1570966;74;710;-66
2020/12/05 02:09:09;;;;;;;;;;;22.80;38.90;;;;;;1570151;74;1932;-65
2020/12/05 02:11:11;;;;;;;;;;;22.70;38.90;;;;;;1569859;74;1152;-66
2020/12/05 02:13:14;;;;;;;;;;;22.80;38.90;;;;;;1570362;74;718;-66
2020/12/05 02:15:27;;;;;;;;;;;22.70;38.80;;;;;;1570943;74;717;-66
2020/12/05 02:17:28;;;;;;;;;;;22.70;38.80;;;;;;1569076;74;732;-66
2020/12/05 02:19:32;;;;;;;;;;;22.70;38.80;;;;;;1570721;74;780;-65
2020/12/05 02:21:34;;;;;;;;;;;22.70;38.80;;;;;;1568637;74;1579;-65
2020/12/05 02:23:36;;;;;;;;;;;22.80;38.90;;;;;;1570383;74;789;-67
2020/12/05 02:25:38;;;;;;;;;;;22.80;38.80;;;;;;1570476;74;718;-65
2020/12/05 02:27:44;;;;;;;;;;;22.70;38.90;;;;;;1570561;74;706;-64
2020/12/05 02:29:44;;;;;;;;;;;22.70;38.80;;;;;;1563493;74;1930;-65
2020/12/05 02:31:46;;;;;;;;;;;22.80;38.70;;;;;;1563486;74;711;-67
2020/12/05 02:33:47;;;;;;;;;;;22.80;38.80;;;;;;1563514;74;723;-65
2020/12/05 02:35:49;;;;;;;;;;;22.70;38.80;;;;;;1576881;74;732;-66
2020/12/05 02:37:51;;;;;;;;;;;22.80;38.70;;;;;;1569723;74;681;-66
2020/12/05 02:39:54;;;;;;;;;;;23.00;38.90;;;;;;1570224;74;1079;-66
2020/12/05 02:41:55;;;;;;;;;;;22.70;38.70;;;;;;1539480;75;724;-66
2020/12/05 02:43:57;;;;;;;;;;;22.80;38.70;;;;;;1566678;74;712;-65
2020/12/05 02:45:59;;;;;;;;;;;22.80;38.70;;;;;;1547470;75;797;-65
2020/12/05 02:48:01;;;;;;;;;;;22.80;38.70;;;;;;1567361;74;722;-66
2020/12/05 02:50:04;;;;;;;;;;;22.80;38.70;;;;;;1567385;74;1942;-65
2020/12/05 02:52:05;;;;;;;;;;;22.80;38.70;;;;;;1566949;74;710;-65
2020/12/05 02:54:08;;;;;;;;;;;22.80;38.70;;;;;;1560690;74;816;-65
2020/12/05 02:56:12;;;;;;;;;;;22.80;38.70;;;;;;1568181;74;718;-66
2020/12/05 02:58:14;;;;;;;;;;;22.70;38.80;;;;;;1573146;74;2272;-67
2020/12/05 03:00:16;;;;;;;;;;;22.80;38.70;;;;;;1566424;74;1167;-65
2020/12/05 03:02:18;;;;;;;;;;;22.80;38.80;;;;;;1564043;74;755;-66
2020/12/05 03:04:20;;;;;;;;;;;22.70;38.70;;;;;;1570158;74;830;-64
2020/12/05 03:06:22;;;;;;;;;;;22.80;38.80;;;;;;1568514;74;674;-65
2020/12/05 03:08:23;;;;;;;;;;;22.70;39.00;;;;;;1562756;74;635;-67
2020/12/05 03:10:25;;;;;;;;;;;22.80;38.90;;;;;;1570354;74;1938;-67
2020/12/05 03:12:27;;;;;;;;;;;22.80;38.90;;;;;;1567198;74;665;-67
2020/12/05 03:14:29;;;;;;;;;;;22.80;38.90;;;;;;1566342;74;701;-67
2020/12/05 03:16:31;;;;;;;;;;;22.80;38.80;;;;;;1567272;74;661;-67
2020/12/05 03:18:33;;;;;;;;;;;22.80;38.80;;;;;;1564458;74;724;-65
2020/12/05 03:20:35;;;;;;;;;;;22.80;38.80;;;;;;1565656;74;1176;-65
2020/12/05 03:22:36;;;;;;;;;;;22.80;38.70;;;;;;1566745;74;734;-66
2020/12/05 03:24:38;;;;;;;;;;;22.80;38.70;;;;;;1567134;74;827;-66
2020/12/05 03:26:40;;;;;;;;;;;22.80;38.60;;;;;;1567587;74;717;-66
2020/12/05 03:28:42;;;;;;;;;;;22.70;38.60;;;;;;1568757;74;745;-66
2020/12/05 03:30:44;;;;;;;;;;;22.80;38.60;;;;;;1563272;74;1925;-67
2020/12/05 03:32:47;;;;;;;;;;;22.80;38.60;;;;;;1561111;74;691;-65
2020/12/05 03:34:49;;;;;;;;;;;22.80;38.80;;;;;;1567391;74;773;-66
2020/12/05 03:36:51;;;;;;;;;;;22.80;38.80;;;;;;1567693;74;756;-64
2020/12/05 03:38:53;;;;;;;;;;;22.70;38.70;;;;;;1568325;74;703;-65
2020/12/05 03:40:55;;;;;;;;;;;22.80;38.70;;;;;;1567724;74;1101;-67
2020/12/05 03:42:57;;;;;;;;;;;22.80;38.70;;;;;;1564337;74;812;-67
2020/12/05 03:44:59;;;;;;;;;;;22.80;38.80;;;;;;1557955;74;804;-67
2020/12/05 03:47:01;;;;;;;;;;;22.80;38.80;;;;;;1568527;74;640;-66
2020/12/05 03:49:03;;;;;;;;;;;22.70;38.80;;;;;;1557617;74;719;-65
2020/12/05 03:51:05;;;;;;;;;;;22.70;38.90;;;;;;1554876;74;1233;-66
2020/12/05 03:53:07;;;;;;;;;;;22.80;39.00;;;;;;1568765;74;1008;-66
2020/12/05 03:55:08;;;;;;;;;;;22.80;39.00;;;;;;1566202;74;875;-66
2020/12/05 03:57:10;;;;;;;;;;;22.70;39.00;;;;;;1564869;74;694;-65
2020/12/05 03:59:12;;;;;;;;;;;22.70;39.10;;;;;;1564624;74;714;-66
2020/12/05 04:01:14;;;;;;;;;;;22.80;39.20;;;;;;1567583;74;1135;-66
2020/12/05 04:03:16;;;;;;;;;;;22.70;39.10;;;;;;1589573;74;677;-66
2020/12/05 04:05:18;;;;;;;;;;;22.70;39.10;;;;;;1534363;75;743;-66
2020/12/05 04:07:20;;;;;;;;;;;22.80;39.10;;;;;;1585935;74;686;-66
2020/12/05 04:09:22;;;;;;;;;;;22.80;39.10;;;;;;1559759;75;1937;-66
2020/12/05 04:11:24;;;;;;;;;;;22.80;39.00;;;;;;1561950;74;1119;-66
2020/12/05 04:13:26;;;;;;;;;;;22.80;38.90;;;;;;1571067;74;771;-67
2020/12/05 04:15:27;;;;;;;;;;;22.80;38.90;;;;;;1563334;75;740;-65
2020/12/05 04:17:29;;;;;;;;;;;22.80;38.90;;;;;;1558420;75;768;-65
2020/12/05 04:19:31;;;;;;;;;;;22.80;38.90;;;;;;1572952;74;1005;-65
2020/12/05 04:21:33;;;;;;;;;;;22.80;38.90;;;;;;1572713;74;1104;-67
2020/12/05 04:23:35;;;;;;;;;;;22.70;38.90;;;;;;1596057;74;714;-65
2020/12/05 04:25:37;;;;;;;;;;;22.80;39.00;;;;;;1579006;74;747;-65
2020/12/05 04:27:39;;;;;;;;;;;22.80;39.00;;;;;;1597390;74;757;-66
2020/12/05 04:29:40;;;;;;;;;;;22.80;39.10;;;;;;1584437;74;1950;-66
2020/12/05 04:31:42;;;;;;;;;;;22.70;39.00;;;;;;1592722;74;743;-66
2020/12/05 04:33:44;;;;;;;;;;;22.70;39.10;;;;;;1598915;74;698;-67
2020/12/05 04:35:46;;;;;;;;;;;22.70;39.20;;;;;;1572691;74;860;-67
2020/12/05 04:37:48;;;;;;;;;;;22.70;39.20;;;;;;1572635;74;784;-67
2020/12/05 04:39:50;;;;;;;;;;;22.70;39.20;;;;;;1566150;74;1150;-65
2020/12/05 04:41:52;;;;;;;;;;;22.70;39.20;;;;;;1564123;75;770;-65
2020/12/05 04:43:54;;;;;;;;;;;22.80;39.20;;;;;;1595891;74;813;-65
2020/12/05 04:45:56;;;;;;;;;;;22.70;39.10;;;;;;1554439;74;764;-65
2020/12/05 04:47:58;;;;;;;;;;;22.70;39.20;;;;;;1591018;74;721;-67
2020/12/05 04:50:00;;;;;;;;;;;22.80;39.20;;;;;;1559932;74;1942;-65
2020/12/05 04:52:03;;;;;;;;;;;22.70;39.20;;;;;;1572660;74;699;-65
2020/12/05 04:54:05;;;;;;;;;;;22.70;39.20;;;;;;1567125;74;1498;-66
2020/12/05 04:56:07;;;;;;;;;;;22.70;39.30;;;;;;1571231;74;989;-66
2020/12/05 04:58:21;;;;;;;;;;;22.70;39.20;;;;;;1576194;74;769;-66
2020/12/05 05:00:24;;;;;;;;;;;22.70;39.30;;;;;;1572486;74;1168;-66
2020/12/05 05:02:29;;;;;;;;;;;22.70;39.40;;;;;;1572555;75;659;-67
2020/12/05 05:04:31;;;;;;;;;;;22.80;39.30;;;;;;1568523;74;780;-67
2020/12/05 05:06:33;;;;;;;;;;;22.80;39.40;;;;;;1572090;74;796;-66
2020/12/05 05:08:34;;;;;;;;;;;22.80;39.40;;;;;;1560417;74;767;-66
2020/12/05 05:10:36;;;;;;;;;;;22.70;39.60;;;;;;1561159;74;1954;-66
2020/12/05 05:12:38;;;;;;;;;;;22.80;39.70;;;;;;1566136;74;752;-67
2020/12/05 05:14:40;;;;;;;;;;;22.80;39.80;;;;;;1572468;74;731;-66
2020/12/05 05:16:42;;;;;;;;;;;22.70;39.80;;;;;;1555187;74;809;-66
2020/12/05 05:18:44;;;;;;;;;;;22.70;39.80;;;;;;1578802;74;757;-65
2020/12/05 05:20:46;;;;;;;;;;;22.70;40.20;;;;;;1586001;73;1173;-67
2020/12/05 05:22:49;;;;;;;;;;;22.70;40.20;;;;;;1578254;74;675;-65
2020/12/05 05:25:01;;;;;;;;;;;22.70;40.30;;;;;;1569737;74;825;-65
2020/12/05 05:27:04;;;;;;;;;;;22.60;40.20;;;;;;1571087;74;816;-65
2020/12/05 05:29:06;;;;;;;;;;;22.60;40.00;;;;;;1567985;74;785;-67
2020/12/05 05:31:16;;;;;;;;;;;22.70;39.90;;;;;;1568234;74;1929;-66
2020/12/05 05:33:15;;;;;;;;;;;22.80;39.60;;;;;;1571690;74;1697;-64
2020/12/05 05:35:17;;;;;;;;;;;22.60;39.30;;;;;;1571569;74;773;-61
2020/12/05 05:37:19;;;;;;;;;;;22.70;39.50;;;;;;1572454;74;710;-63
2020/12/05 05:39:21;;;;;;;;;;;22.60;39.50;;;;;;1573479;74;816;-65
2020/12/05 05:41:23;;;;;;;;;;;22.60;39.40;;;;;;1572489;74;1060;-64
2020/12/05 05:43:25;;;;;;;;;;;22.60;39.30;;;;;;1572843;74;824;-65
2020/12/05 05:45:27;;;;;;;;;;;22.70;39.20;;;;;;1570885;74;821;-65
2020/12/05 05:47:29;;;;;;;;;;;22.70;39.10;;;;;;1568859;74;728;-65
2020/12/05 05:49:33;;;;;;;;;;;22.70;39.00;;;;;;1572460;74;746;-65
2020/12/05 05:51:39;;;;;;;;;;;22.70;38.90;;;;;;1572573;74;1945;-64
2020/12/05 05:53:41;;;;;;;;;;;22.70;38.90;;;;;;1571420;74;757;-66
2020/12/05 05:55:49;;;;;;;;;;;22.70;38.80;;;;;;1572447;74;713;-65
2020/12/05 05:57:51;;;;;;;;;;;22.60;38.60;;;;;;1569147;74;716;-63
2020/12/05 05:59:52;;;;;;;;;;;22.70;38.60;;;;;;1542606;75;1213;-66
2020/12/05 06:01:54;;;;;;;;;;;22.70;38.60;;;;;;1572414;74;673;-67
2020/12/05 06:03:56;;;;;;;;;;;22.60;38.40;;;;;;1570619;74;741;-67
2020/12/05 06:05:58;;;;;;;;;;;22.60;38.50;;;;;;1572136;74;724;-72
2020/12/05 06:08:00;;;;;;;;;;;22.60;38.40;;;;;;1567342;74;743;-66
2020/12/05 06:10:02;;;;;;;;;;;22.70;38.40;;;;;;1570336;74;1930;-67
2020/12/05 06:12:04;;;;;;;;;;;22.60;38.30;;;;;;1570293;74;711;-67
2020/12/05 06:14:06;;;;;;;;;;;22.60;38.20;;;;;;1572639;74;776;-67
2020/12/05 06:16:08;;;;;;;;;;;22.60;38.10;;;;;;1572639;74;784;-66
2020/12/05 06:18:10;;;;;;;;;;;22.60;38.10;;;;;;1573933;74;781;-67
2020/12/05 06:20:12;;;;;;;;;;;22.60;38.10;;;;;;1574312;74;1199;-67
2020/12/05 06:22:32;;;;;;;;;;;22.60;38.00;;;;;;1573849;74;642;-66
2020/12/05 06:24:41;;;;;;;;;;;22.60;38.00;;;;;;1568656;74;794;-66
2020/12/05 06:26:43;;;;;;;;;;;22.50;37.90;;;;;;1574332;74;671;-66
2020/12/05 06:28:45;;;;;;;;;;;22.60;37.90;;;;;;1573650;74;942;-67
2020/12/05 06:30:47;;;;;;;;;;;22.60;37.80;;;;;;1570949;74;1958;-66
2020/12/05 06:32:50;;;;;;;;;;;22.50;37.80;;;;;;1576545;74;803;-67
2020/12/05 06:34:51;;;;;;;;;;;22.50;37.70;;;;;;1574456;74;734;-66
2020/12/05 06:36:53;;;;;;;;;;;22.50;37.70;;;;;;1573242;74;678;-67
2020/12/05 06:39:06;;;;;;;;;;;22.50;37.70;;;;;;1571702;73;786;-66
2020/12/05 06:41:08;;;;;;;;;;;22.60;37.60;;;;;;1559873;75;1157;-66
2020/12/05 06:43:13;;;;;;;;;;;22.50;37.60;;;;;;1557484;75;690;-66
2020/12/05 06:45:28;;;;;;;;;;;22.60;37.60;;;;;;1552545;75;871;-67
2020/12/05 06:47:30;;;;;;;;;;;22.50;37.60;;;;;;1552293;75;732;-66
2020/12/05 06:49:40;;;;;;;;;;;22.50;37.60;;;;;;1545894;75;774;-66
2020/12/05 06:51:42;;;;;;;;;;;22.50;37.60;;;;;;1567246;74;1935;-66
2020/12/05 06:53:43;;;;;;;;;;;22.50;37.50;;;;;;1555404;75;712;-66
2020/12/05 06:55:45;;;;;;;;;;;22.40;37.40;;;;;;1540941;76;1265;-66
2020/12/05 06:57:47;;;;;;;;;;;22.50;37.40;;;;;;1554417;75;713;-66
2020/12/05 06:59:49;;;;;;;;;;;22.40;37.30;;;;;;1555314;75;1197;-66
2020/12/05 07:01:51;;;;;;;;;;;22.50;37.30;;;;;;1542748;75;783;-66
2020/12/05 07:03:53;;;;;;;;;;;22.50;37.30;;;;;;1539488;75;722;-66
2020/12/05 07:05:55;;;;;;;;;;;22.50;37.30;;;;;;1531662;75;762;-66
2020/12/05 07:07:58;;;;;;;;;;;22.50;37.30;;;;;;1534737;75;734;-66
2020/12/05 07:10:00;;;;;;;;;;;22.50;37.20;;;;;;1537024;76;1157;-67
2020/12/05 07:12:19;;;;;;;;;;;22.50;37.20;;;;;;1571738;74;1939;-66
2020/12/05 07:14:25;;;;;;;;;;;22.50;37.10;;;;;;1568219;76;787;-66
2020/12/05 07:16:27;;;;;;;;;;;22.40;36.90;;;;;;1545198;76;664;-66
2020/12/05 07:18:29;;;;;;;;;;;22.40;36.90;;;;;;1554360;75;738;-66
2020/12/05 07:20:31;;;;;;;;;;;22.40;36.90;;;;;;1565295;74;1120;-66
2020/12/05 07:22:33;;;;;;;;;;;22.40;36.80;;;;;;1574853;74;756;-66
2020/12/05 07:24:34;;;;;;;;;;;22.50;36.90;;;;;;1573048;74;671;-67
2020/12/05 07:26:36;;;;;;;;;;;22.40;36.80;;;;;;1574132;74;743;-67
2020/12/05 07:28:38;;;;;;;;;;;22.40;36.70;;;;;;1566776;74;704;-66
2020/12/05 07:30:40;;;;;;;;;;;22.50;36.80;;;;;;1571903;74;1946;-67
2020/12/05 07:32:42;;;;;;;;;;;22.50;36.80;;;;;;1572844;74;710;-66
2020/12/05 07:34:44;;;;;;;;;;;22.40;36.60;;;;;;1572955;74;726;-67
2020/12/05 07:36:46;;;;;;;;;;;22.50;36.70;;;;;;1571016;74;615;-68
2020/12/05 07:38:48;;;;;;;;;;;22.40;36.60;;;;;;1561066;75;724;-66
2020/12/05 07:40:50;;;;;;;;;;;22.40;36.60;;;;;;1584504;74;1112;-67
2020/12/05 07:42:52;;;;;;;;;;;22.50;36.70;;;;;;1578233;74;716;-66
2020/12/05 07:44:54;;;;;;;;;;;22.40;36.50;;;;;;1565551;76;767;-66
2020/12/05 07:46:55;;;;;;;;;;;22.40;36.50;;;;;;1526602;77;1055;-66
2020/12/05 07:48:57;;;;;;;;;;;22.40;36.50;;;;;;1542395;75;788;-67
2020/12/05 07:50:59;;;;;;;;;;;22.50;36.60;;;;;;1537742;75;1946;-67
2020/12/05 07:53:01;;;;;;;;;;;22.40;36.40;;;;;;1573439;74;775;-66
2020/12/05 07:55:03;;;;;;;;;;;22.40;36.40;;;;;;1554286;75;704;-66
2020/12/05 07:57:08;;;;;;;;;;;22.40;36.30;;;;;;1570024;74;714;-66
2020/12/05 07:59:10;;;;;;;;;;;22.40;36.30;;;;;;1547868;75;737;-67
2020/12/05 08:01:13;;;;;;;;;;;22.40;36.20;;;;;;1553146;75;1249;-66
2020/12/05 08:03:26;;;;;;;;;;;22.40;36.30;;;;;;1553247;75;1955;-67
2020/12/05 08:05:39;;;;;;;;;;;22.40;36.30;;;;;;1569317;74;702;-66
2020/12/05 08:07:46;;;;;;;;;;;22.40;36.30;;;;;;1543720;75;1480;-65
2020/12/05 08:09:44;;;;;;;;;;;22.40;36.20;;;;;;1551372;75;1137;-66
2020/12/05 08:11:47;;;;;;;;;;;22.40;36.20;;;;;;1557773;75;1934;-66
2020/12/05 08:13:49;;;;;;;;;;;22.40;36.20;;;;;;1574358;74;723;-67
2020/12/05 08:16:02;;;;;;;;;;;22.40;36.20;;;;;;1557665;75;734;-68
2020/12/05 08:18:04;;;;;;;;;;;22.40;36.20;;;;;;1571563;74;2195;-66
2020/12/05 08:20:06;;;;;;;;;;;22.40;36.10;;;;;;1557640;75;1172;-66
2020/12/05 08:22:08;;;;;;;;;;;22.40;36.20;;;;;;1548800;75;696;-66
2020/12/05 08:24:13;;;;;;;;;;;22.40;36.20;;;;;;1551337;75;855;-66
2020/12/05 08:26:15;;;;;;;;;;;22.40;36.10;;;;;;1575857;75;702;-66
2020/12/05 08:28:18;;;;;;;;;;;22.40;36.10;;;;;;1574672;74;798;-66
2020/12/05 08:30:20;;;;;;;;;;;22.40;36.10;;;;;;1569202;75;1201;-66
2020/12/05 08:32:23;;;;;;;;;;;22.40;36.10;;;;;;1555056;75;1942;-66
2020/12/05 08:34:32;;;;;;;;;;;22.40;36.10;;;;;;1557016;75;589;-66
2020/12/05 08:36:35;;;;;;;;;;;22.40;36.00;;;;;;1552113;76;704;-66
2020/12/05 08:38:37;;;;;;;;;;;22.40;36.00;;;;;;1546165;75;724;-67
2020/12/05 08:40:39;;;;;;;;;;;22.40;36.10;;;;;;1527628;76;1129;-66
2020/12/05 08:42:42;;;;;;;;;;;22.40;36.00;;;;;;1544795;75;707;-66
2020/12/05 08:44:44;;;;;;;;;;;22.40;36.00;;;;;;1536952;75;1934;-66
2020/12/05 08:46:46;;;;;;;;;;;22.40;36.00;;;;;;1540849;76;794;-66
2020/12/05 08:48:48;;;;;;;;;;;22.40;36.00;;;;;;1541135;75;695;-65
2020/12/05 08:50:50;;;;;;;;;;;22.40;36.00;;;;;;1566815;74;1123;-66
2020/12/05 08:52:53;;;;;;;;;;;22.40;36.00;;;;;;1554222;75;852;-66
2020/12/05 08:54:55;;;;;;;;;;;22.50;36.10;;;;;;1568599;74;784;-66
2020/12/05 08:57:09;;;;;;;;;;;22.40;35.90;;;;;;1554324;75;902;-65
2020/12/05 08:59:11;;;;;;;;;;;22.40;35.90;;;;;;1555222;75;754;-66
2020/12/05 09:01:13;;;;;;;;;;;22.40;35.90;;;;;;1554604;75;1105;-66
2020/12/05 09:03:22;;;;;;;;;;;22.40;35.80;;;;;;1554392;75;694;-66
2020/12/05 09:05:24;;;;;;;;;;;22.40;35.90;;;;;;1554948;75;797;-66
2020/12/05 09:07:25;;;;;;;;;;;22.40;35.80;;;;;;1553990;75;719;-66
2020/12/05 09:09:30;;;;;;;;;;;22.50;36.00;;;;;;1554913;75;746;-64
2020/12/05 09:11:32;;;;;;;;;;;22.40;35.80;;;;;;1554000;75;1917;-67
2020/12/05 09:13:34;;;;;;;;;;;22.40;35.80;;;;;;1556817;75;727;-66
2020/12/05 09:15:36;;;;;;;;;;;22.40;35.80;;;;;;1536461;76;1174;-66
2020/12/05 09:17:37;;;;;;;;;;;22.40;35.80;;;;;;1554106;75;771;-66
2020/12/05 09:19:39;;;;;;;;;;;22.40;35.80;;;;;;1555219;75;711;-65
2020/12/05 09:21:41;;;;;;;;;;;22.50;35.90;;;;;;1552864;75;1178;-65
2020/12/05 09:23:43;;;;;;;;;;;22.40;35.70;;;;;;1558908;75;738;-66
2020/12/05 09:25:45;;;;;;;;;;;22.50;35.80;;;;;;1558538;75;712;-66
2020/12/05 09:27:47;;;;;;;;;;;22.50;35.80;;;;;;1587273;74;693;-66
2020/12/05 09:29:49;;;;;;;;;;;22.40;35.70;;;;;;1575791;74;1175;-65
2020/12/05 09:31:55;;;;;;;;;;;22.40;35.70;;;;;;1569816;74;2230;-66
2020/12/05 09:33:57;;;;;;;;;;;22.40;35.60;;;;;;1554611;75;796;-65
2020/12/05 09:35:59;;;;;;;;;;;22.40;35.60;;;;;;1550338;75;627;-66
2020/12/05 09:38:02;;;;;;;;;;;22.40;35.70;;;;;;1554043;75;726;-65
2020/12/05 09:40:07;;;;;;;;;;;22.40;35.60;;;;;;1563897;75;1160;-65
2020/12/05 09:42:09;;;;;;;;;;;22.40;35.60;;;;;;1543704;75;794;-66
2020/12/05 09:44:11;;;;;;;;;;;22.40;35.60;;;;;;1535991;76;967;-67
2020/12/05 09:46:13;;;;;;;;;;;22.40;35.70;;;;;;1572132;74;634;-65
2020/12/05 09:48:15;;;;;;;;;;;22.40;35.70;;;;;;1571822;75;721;-67
2020/12/05 09:50:17;;;;;;;;;;;22.30;35.80;;;;;;1564504;74;1132;-67
2020/12/05 09:52:19;;;;;;;;;;;22.40;35.90;;;;;;1568398;74;1932;-64
2020/12/05 09:54:21;;;;;;;;;;;22.40;35.80;;;;;;1572440;74;772;-67
2020/12/05 09:56:22;;;;;;;;;;;22.40;35.80;;;;;;1572281;74;793;-64
2020/12/05 09:58:24;;;;;;;;;;;22.40;35.80;;;;;;1575414;74;704;-66
2020/12/05 10:00:26;;;;;;;;;;;22.40;35.80;;;;;;1572490;74;1148;-66
2020/12/05 10:02:28;;;;;;;;;;;22.40;35.90;;;;;;1572535;74;768;-67
2020/12/05 10:04:30;;;;;;;;;;;22.40;36.00;;;;;;1558703;75;802;-67
2020/12/05 10:06:32;;;;;;;;;;;22.40;35.90;;;;;;1581209;74;827;-71
2020/12/05 10:08:34;;;;;;;;;;;22.40;35.80;;;;;;1564015;74;727;-66
2020/12/05 10:10:36;;;;;;;;;;;22.50;36.00;;;;;;1583493;73;1137;-67
2020/12/05 10:12:38;;;;;;;;;;;22.40;35.80;;;;;;1567738;74;1918;-67
2020/12/05 10:14:40;;;;;;;;;;;22.40;35.70;;;;;;1572583;74;779;-63
2020/12/05 10:16:42;;;;;;;;;;;22.40;35.70;;;;;;1578905;74;733;-66
2020/12/05 10:18:44;;;;;;;;;;;22.50;35.70;;;;;;1572619;75;765;-66
2020/12/05 10:20:46;;;;;;;;;;;22.50;35.70;;;;;;1572544;74;1179;-66
2020/12/05 10:22:47;;;;;;;;;;;22.40;35.70;;;;;;1556963;74;706;-66
2020/12/05 10:24:50;;;;;;;;;;;22.40;35.70;;;;;;1545613;74;716;-66
2020/12/05 10:26:57;;;;;;;;;;;22.50;35.70;;;;;;1568257;74;788;-67
2020/12/05 10:28:55;;;;;;;;;;;22.40;35.60;;;;;;1557289;74;1556;-66
2020/12/05 10:30:57;;;;;;;;;;;22.40;35.60;;;;;;1589371;73;1154;-66
2020/12/05 10:32:59;;;;;;;;;;;22.40;35.50;;;;;;1588038;74;1942;-66
2020/12/05 10:35:01;;;;;;;;;;;22.50;35.60;;;;;;1573464;74;666;-66
2020/12/05 10:37:03;;;;;;;;;;;22.40;35.50;;;;;;1596325;74;734;-67
2020/12/05 10:39:05;;;;;;;;;;;22.40;35.50;;;;;;1578298;74;771;-66
2020/12/05 10:41:07;;;;;;;;;;;22.40;35.50;;;;;;1587040;73;1174;-68
2020/12/05 10:43:09;;;;;;;;;;;22.40;35.50;;;;;;1563025;74;689;-66
2020/12/05 10:45:10;;;;;;;;;;;22.40;35.50;;;;;;1567090;74;676;-66
2020/12/05 10:47:12;;;;;;;;;;;22.50;35.60;;;;;;1571246;74;796;-64
2020/12/05 10:49:14;;;;;;;;;;;22.40;35.50;;;;;;1573491;74;716;-66
2020/12/05 10:51:16;;;;;;;;;;;22.40;35.50;;;;;;1575206;74;1144;-65
2020/12/05 10:53:18;;;;;;;;;;;22.40;35.50;;;;;;1575254;74;1936;-66
2020/12/05 10:55:20;;;;;;;;;;;22.50;35.50;;;;;;1580234;74;704;-66
2020/12/05 10:57:22;;;;;;;;;;;22.50;35.50;;;;;;1573139;74;678;-66
2020/12/05 10:59:24;;;;;;;;;;;22.40;35.40;;;;;;1568571;74;657;-66
2020/12/05 11:01:26;;;;;;;;;;;22.40;35.40;;;;;;1555373;75;1157;-67
2020/12/05 11:03:27;;;;;;;;;;;22.40;35.30;;;;;;1540373;75;746;-65
2020/12/05 11:05:29;;;;;;;;;;;22.40;35.40;;;;;;1539800;75;675;-66
2020/12/05 11:07:31;;;;;;;;;;;22.40;35.40;;;;;;1555688;74;736;-66
2020/12/05 11:09:33;;;;;;;;;;;22.40;35.40;;;;;;1555765;75;735;-66
2020/12/05 11:11:35;;;;;;;;;;;22.40;35.40;;;;;;1569709;74;1077;-66
2020/12/05 11:13:37;;;;;;;;;;;22.40;35.30;;;;;;1576670;74;1888;-69
2020/12/05 11:15:39;;;;;;;;;;;22.40;35.40;;;;;;1556418;75;727;-66
2020/12/05 11:17:41;;;;;;;;;;;22.40;35.30;;;;;;1584595;74;698;-66
2020/12/05 11:19:43;;;;;;;;;;;22.40;35.20;;;;;;1587831;74;1132;-65
2020/12/05 11:21:45;;;;;;;;;;;22.40;35.30;;;;;;1569630;74;762;-68
2020/12/05 11:23:47;;;;;;;;;;;22.40;35.20;;;;;;1570385;74;845;-67
2020/12/05 11:25:49;;;;;;;;;;;22.40;35.20;;;;;;1575204;74;797;-67
2020/12/05 11:27:51;;;;;;;;;;;22.40;35.20;;;;;;1578910;74;775;-67
2020/12/05 11:29:53;;;;;;;;;;;22.30;35.30;;;;;;1579531;74;1209;-67
2020/12/05 11:31:55;;;;;;;;;;;22.30;35.30;;;;;;1561428;74;1940;-65
2020/12/05 11:33:57;;;;;;;;;;;22.30;35.20;;;;;;1571378;74;759;-67
2020/12/05 11:35:58;;;;;;;;;;;22.30;35.30;;;;;;1556079;75;711;-67
2020/12/05 11:38:00;;;;;;;;;;;22.30;35.30;;;;;;1579800;74;687;-66
2020/12/05 11:40:02;;;;;;;;;;;22.40;35.20;;;;;;1582627;74;1191;-65
2020/12/05 11:42:04;;;;;;;;;;;22.30;35.40;;;;;;1581290;74;728;-67
2020/12/05 11:44:06;;;;;;;;;;;22.20;35.50;;;;;;1575531;74;710;-67
2020/12/05 11:46:08;;;;;;;;;;;22.20;35.60;;;;;;1580564;74;788;-65
2020/12/05 11:48:10;;;;;;;;;;;22.30;35.70;;;;;;1572992;74;691;-67
2020/12/05 11:50:12;;;;;;;;;;;22.20;35.70;;;;;;1571026;74;1140;-66
2020/12/05 11:52:13;;;;;;;;;;;22.30;35.70;;;;;;1548184;75;1936;-66
2020/12/05 11:54:15;;;;;;;;;;;22.30;35.70;;;;;;1572753;74;794;-67
2020/12/05 11:56:17;;;;;;;;;;;22.30;35.70;;;;;;1559231;75;724;-66
2020/12/05 11:58:19;;;;;;;;;;;22.30;35.70;;;;;;1562283;75;683;-66
2020/12/05 12:00:21;;;;;;;;;;;22.30;35.60;;;;;;1549323;76;1172;-66
2020/12/05 12:02:23;;;;;;;;;;;22.30;35.70;;;;;;1548675;75;688;-67
2020/12/05 12:04:25;;;;;;;;;;;22.30;35.60;;;;;;1574178;74;799;-66
2020/12/05 12:06:27;;;;;;;;;;;22.30;35.60;;;;;;1564650;75;682;-69
2020/12/05 12:08:29;;;;;;;;;;;22.40;35.50;;;;;;1554987;75;781;-67
2020/12/05 12:10:30;;;;;;;;;;;22.40;35.40;;;;;;1551115;75;1158;-65